createdAt,value
2022-08-22T00:01:56.858Z,92733.56
2022-08-22T00:02:44.409Z,92755.19
2022-08-22T00:03:11.562Z,92743.25
2022-08-22T00:04:41.517Z,92730.94
2022-08-22T00:07:35.168Z,92734.25
2022-08-22T00:10:11.497Z,92735.72
2022-08-22T00:13:03.085Z,92738.59
2022-08-22T00:15:44.452Z,92736.81
2022-08-22T00:18:29.845Z,92730.44
2022-08-22T00:21:16.583Z,92729.16
2022-08-22T00:24:10.731Z,92726.00
2022-08-22T00:26:45.624Z,92732.59
2022-08-22T00:29:55.189Z,92728.38
2022-08-22T00:32:38.644Z,92725.53
2022-08-22T00:35:12.892Z,92725.25
2022-08-22T00:37:39.368Z,92724.66
2022-08-22T00:40:31.048Z,92725.16
2022-08-22T00:43:24.747Z,92720.13
2022-08-22T00:46:09.379Z,92724.66
2022-08-22T00:48:47.149Z,92718.56
2022-08-22T00:51:31.390Z,92726.31
2022-08-22T00:54:04.470Z,92725.84
2022-08-22T00:57:01.554Z,92726.81
2022-08-22T00:59:48.148Z,92718.06
2022-08-22T01:02:34.624Z,92727.09
2022-08-22T01:05:17.145Z,92726.09
2022-08-22T01:08:02.870Z,92726.38
2022-08-22T01:10:47.797Z,92724.22
2022-08-22T01:13:20.641Z,92727.97
2022-08-22T01:15:51.077Z,92728.53
2022-08-22T01:18:40.962Z,92725.31
2022-08-22T01:21:13.246Z,92727.31
2022-08-22T01:24:00.997Z,92722.28
2022-08-22T01:26:40.466Z,92716.81
2022-08-22T01:29:36.771Z,92712.66
2022-08-22T01:32:42.153Z,92717.97
2022-08-22T01:35:29.478Z,92714.81
2022-08-22T01:38:12.813Z,92714.41
2022-08-22T01:41:10.521Z,92705.69
2022-08-22T01:44:13.725Z,92706.47
2022-08-22T01:47:05.994Z,92704.22
2022-08-22T01:49:39.694Z,92713.22
2022-08-22T01:52:19.753Z,92710.38
2022-08-22T01:54:56.364Z,92708.53
2022-08-22T01:57:24.257Z,92708.31
2022-08-22T01:59:56.030Z,92704.59
2022-08-22T02:02:41.325Z,92703.00
2022-08-22T02:05:16.728Z,92708.88
2022-08-22T02:08:15.530Z,92707.91
2022-08-22T02:11:00.146Z,92704.75
2022-08-22T02:13:48.409Z,92702.41
2022-08-22T02:16:32.058Z,92700.34
2022-08-22T02:19:16.667Z,92703.56
2022-08-22T02:21:53.369Z,92691.59
2022-08-22T02:24:44.945Z,92701.19
2022-08-22T02:27:17.652Z,92696.81
2022-08-22T02:29:57.844Z,92688.19
2022-08-22T02:32:47.668Z,92684.75
2022-08-22T02:35:39.811Z,92687.75
2022-08-22T02:38:20.279Z,92688.63
2022-08-22T02:41:05.746Z,92692.63
2022-08-22T02:43:59.589Z,92693.19
2022-08-22T02:46:47.508Z,92683.78
2022-08-22T02:49:28.104Z,92679.13
2022-08-22T02:52:14.760Z,92684.97
2022-08-22T02:55:04.469Z,92679.78
2022-08-22T02:57:42.269Z,92677.63
2022-08-22T03:00:31.659Z,92673.78
2022-08-22T03:02:59.394Z,92674.63
2022-08-22T03:05:38.285Z,92678.94
2022-08-22T03:08:12.977Z,92673.91
2022-08-22T03:10:45.746Z,92669.78
2022-08-22T03:13:24.376Z,92669.06
2022-08-22T03:16:04.333Z,92673.13
2022-08-22T03:18:44.755Z,92671.63
2022-08-22T03:21:50.058Z,92680.13
2022-08-22T03:24:33.327Z,92672.22
2022-08-22T03:27:31.420Z,92673.81
2022-08-22T03:30:28.508Z,92674.69
2022-08-22T03:32:59.451Z,92666.28
2022-08-22T03:35:34.512Z,92670.19
2022-08-22T03:38:18.605Z,92670.34
2022-08-22T03:41:02.628Z,92673.81
2022-08-22T03:43:47.729Z,92665.81
2022-08-22T03:46:23.497Z,92670.94
2022-08-22T03:49:06.339Z,92672.50
2022-08-22T03:51:51.397Z,92669.66
2022-08-22T03:54:37.791Z,92675.56
2022-08-22T03:57:07.467Z,92675.34
2022-08-22T04:00:06.837Z,92674.81
2022-08-22T04:02:51.950Z,92679.91
2022-08-22T04:06:01.752Z,92679.66
2022-08-22T04:08:51.858Z,92678.63
2022-08-22T04:11:24.437Z,92681.34
2022-08-22T04:14:48.896Z,92679.03
2022-08-22T04:17:36.684Z,92682.22
2022-08-22T04:20:40.337Z,92686.19
2022-08-22T04:23:13.002Z,92690.72
2022-08-22T04:25:50.797Z,92687.31
2022-08-22T04:28:32.969Z,92684.72
2022-08-22T04:31:12.161Z,92685.00
2022-08-22T04:34:16.496Z,92692.94
2022-08-22T04:36:48.213Z,92691.69
2022-08-22T04:39:18.541Z,92698.78
2022-08-22T04:41:46.718Z,92693.84
2022-08-22T04:44:21.318Z,92695.66
2022-08-22T04:47:10.217Z,92693.50
2022-08-22T04:49:57.042Z,92693.00
2022-08-22T04:52:35.854Z,92692.75
2022-08-22T04:55:26.613Z,92692.75
2022-08-22T04:58:13.606Z,92695.66
2022-08-22T05:00:51.966Z,92691.69
2022-08-22T05:03:22.102Z,92692.75
2022-08-22T05:05:52.989Z,92690.69
2022-08-22T05:08:25.277Z,92689.13
2022-08-22T05:10:52.418Z,92692.56
2022-08-22T05:13:30.928Z,92700.69
2022-08-22T05:16:03.454Z,92695.41
2022-08-22T05:18:38.547Z,92698.59
2022-08-22T05:21:09.064Z,92692.25
2022-08-22T05:23:43.070Z,92689.63
2022-08-22T05:26:13.536Z,92700.69
2022-08-22T05:28:53.261Z,92700.69
2022-08-22T05:31:28.735Z,92696.66
2022-08-22T05:34:02.578Z,92693.81
2022-08-22T05:36:35.146Z,92695.38
2022-08-22T05:39:10.637Z,92696.44
2022-08-22T05:41:39.303Z,92700.09
2022-08-22T05:44:17.364Z,92696.34
2022-08-22T05:46:48.619Z,92690.72
2022-08-22T05:49:47.546Z,92693.56
2022-08-22T05:52:56.684Z,92696.63
2022-08-22T05:55:37.283Z,92703.22
2022-08-22T05:58:36.712Z,92703.16
2022-08-22T06:01:37.944Z,92706.06
2022-08-22T06:04:14.321Z,92707.63
2022-08-22T06:06:55.170Z,92702.84
2022-08-22T06:09:47.785Z,92704.94
2022-08-22T06:12:21.706Z,92711.25
2022-08-22T06:15:12.034Z,92705.84
2022-08-22T06:17:49.399Z,92711.53
2022-08-22T06:20:32.219Z,92707.72
2022-08-22T06:23:02.396Z,92709.78
2022-08-22T06:25:35.527Z,92716.81
2022-08-22T06:28:07.936Z,92714.31
2022-08-22T06:30:37.970Z,92722.13
2022-08-22T06:33:12.844Z,92719.34
2022-08-22T06:36:07.376Z,92716.25
2022-08-22T06:39:02.424Z,92713.50
2022-08-22T06:41:32.718Z,92716.28
2022-08-22T06:44:01.749Z,92716.66
2022-08-22T06:46:31.726Z,92722.06
2022-08-22T06:49:00.366Z,92727.50
2022-08-22T06:51:29.169Z,92730.53
2022-08-22T06:54:01.330Z,92724.09
2022-08-22T06:56:35.548Z,92723.94
2022-08-22T06:59:09.312Z,92724.53
2022-08-22T07:01:51.731Z,92729.63
2022-08-22T07:04:23.915Z,92721.25
2022-08-22T07:06:51.339Z,92728.41
2022-08-22T07:09:38.360Z,92725.84
2022-08-22T07:12:14.727Z,92731.16
2022-08-22T07:14:44.322Z,92726.19
2022-08-22T07:17:18.502Z,92727.56
2022-08-22T07:20:24.077Z,92734.88
2022-08-22T07:23:04.024Z,92722.69
2022-08-22T07:25:32.271Z,92727.66
2022-08-22T07:28:36.954Z,92728.59
2022-08-22T07:31:46.588Z,92729.22
2022-08-22T07:34:31.959Z,92725.25
2022-08-22T07:37:05.698Z,92730.00
2022-08-22T07:39:38.406Z,92725.72
2022-08-22T07:42:28.543Z,92729.38
2022-08-22T07:45:03.088Z,92730.09
2022-08-22T07:47:49.732Z,92730.91
2022-08-22T07:50:28.589Z,92726.09
2022-08-22T07:53:01.931Z,92730.06
2022-08-22T07:55:28.680Z,92739.63
2022-08-22T07:58:04.095Z,92738.88
2022-08-22T08:00:32.404Z,92729.38
2022-08-22T08:03:04.596Z,92732.06
2022-08-22T08:05:34.285Z,92729.72
2022-08-22T08:08:08.808Z,92729.72
2022-08-22T08:10:42.460Z,92740.09
2022-08-22T08:13:19.305Z,92731.63
2022-08-22T08:15:46.130Z,92734.31
2022-08-22T08:18:19.302Z,92731.19
2022-08-22T08:20:54.630Z,92736.81
2022-08-22T08:23:23.672Z,92734.44
2022-08-22T08:25:57.664Z,92734.91
2022-08-22T08:28:37.699Z,92738.25
2022-08-22T08:31:31.458Z,92735.41
2022-08-22T08:34:05.187Z,92733.53
2022-08-22T08:36:43.131Z,92739.16
2022-08-22T08:39:21.323Z,92736.94
2022-08-22T08:42:00.060Z,92738.84
2022-08-22T08:44:46.793Z,92735.84
2022-08-22T08:47:25.036Z,92731.59
2022-08-22T08:50:07.984Z,92731.44
2022-08-22T08:52:52.970Z,92739.41
2022-08-22T08:55:24.951Z,92733.91
2022-08-22T08:58:22.645Z,92729.78
2022-08-22T09:01:00.660Z,92731.63
2022-08-22T09:03:57.422Z,92731.13
2022-08-22T09:06:42.365Z,92727.66
2022-08-22T09:09:32.230Z,92721.19
2022-08-22T09:12:07.565Z,92725.38
2022-08-22T09:14:52.313Z,92724.38
2022-08-22T09:17:27.966Z,92718.66
2022-08-22T09:20:17.730Z,92726.09
2022-08-22T09:23:34.913Z,92720.63
2022-08-22T09:26:08.774Z,92716.47
2022-08-22T09:28:57.958Z,92729.09
2022-08-22T09:31:48.062Z,92721.69
2022-08-22T09:34:42.718Z,92729.50
2022-08-22T09:37:16.864Z,92720.13
2022-08-22T09:43:14.047Z,92725.78
2022-08-22T09:46:09.678Z,92722.34
2022-08-22T09:48:39.493Z,92729.94
2022-08-22T09:51:31.966Z,92725.84
2022-08-22T09:54:20.726Z,92727.06
2022-08-22T09:56:55.934Z,92729.22
2022-08-22T09:59:45.775Z,92732.22
2022-08-22T10:02:26.406Z,92729.75
2022-08-22T10:05:40.675Z,92725.44
2022-08-22T10:08:35.193Z,92731.72
2022-08-22T10:11:28.874Z,92731.38
2022-08-22T10:14:22.202Z,92730.59
2022-08-22T10:17:09.202Z,92731.94
2022-08-22T10:19:42.185Z,92741.84
2022-08-22T10:22:39.304Z,92732.53
2022-08-22T10:25:34.260Z,92732.47
2022-08-22T10:28:15.915Z,92729.72
2022-08-22T10:30:59.416Z,92739.66
2022-08-22T10:33:33.230Z,92731.50
2022-08-22T10:36:11.688Z,92722.47
2022-08-22T10:38:46.927Z,92733.53
2022-08-22T10:41:19.349Z,92723.13
2022-08-22T10:44:16.522Z,92730.50
2022-08-22T10:46:55.290Z,92724.81
2022-08-22T10:49:51.317Z,92718.34
2022-08-22T10:52:45.554Z,92717.31
2022-08-22T10:55:24.512Z,92719.50
2022-08-22T10:58:10.994Z,92716.94
2022-08-22T11:01:00.490Z,92719.72
2022-08-22T11:03:47.037Z,92710.53
2022-08-22T11:06:22.078Z,92711.31
2022-08-22T11:09:14.134Z,92710.91
2022-08-22T11:11:54.197Z,92713.09
2022-08-22T11:14:53.560Z,92713.91
2022-08-22T11:17:35.688Z,92704.63
2022-08-22T11:20:15.016Z,92709.13
2022-08-22T11:23:12.508Z,92704.53
2022-08-22T11:25:52.371Z,92712.25
2022-08-22T11:28:33.348Z,92708.28
2022-08-22T11:31:47.368Z,92707.16
2022-08-22T11:34:55.818Z,92701.59
2022-08-22T11:37:56.507Z,92697.50
2022-08-22T11:40:42.736Z,92699.13
2022-08-22T11:43:12.030Z,92696.31
2022-08-22T11:45:51.863Z,92686.34
2022-08-22T11:48:31.063Z,92679.88
2022-08-22T11:51:00.655Z,92685.09
2022-08-22T11:53:39.609Z,92685.09
2022-08-22T11:56:12.850Z,92676.69
2022-08-22T11:58:59.429Z,92674.38
2022-08-22T12:01:55.341Z,92669.34
2022-08-22T12:04:33.948Z,92674.72
2022-08-22T12:07:22.167Z,92672.63
2022-08-22T12:09:55.109Z,92664.97
2022-08-22T12:12:24.691Z,92660.97
2022-08-22T12:15:01.037Z,92670.66
2022-08-22T12:18:21.751Z,92668.81
2022-08-22T12:21:16.130Z,92676.69
2022-08-22T12:23:50.427Z,92673.19
2022-08-22T12:26:34.074Z,92675.78
2022-08-22T12:29:20.392Z,92669.06
2022-08-22T12:32:06.537Z,92667.19
2022-08-22T12:34:48.758Z,92667.00
2022-08-22T12:37:28.313Z,92664.66
2022-08-22T12:40:21.039Z,92665.44
2022-08-22T12:43:05.055Z,92666.53
2022-08-22T12:45:56.762Z,92665.91
2022-08-22T12:48:54.578Z,92665.44
2022-08-22T12:51:24.521Z,92663.53
2022-08-22T12:54:21.983Z,92660.09
2022-08-22T12:57:01.720Z,92658.34
2022-08-22T12:59:32.606Z,92656.28
2022-08-22T13:02:15.178Z,92652.97
2022-08-22T13:04:50.678Z,92653.84
2022-08-22T13:07:34.586Z,92653.41
2022-08-22T13:10:32.492Z,92651.84
2022-08-22T13:13:00.458Z,92646.66
2022-08-22T13:15:37.186Z,92647.94
2022-08-22T13:18:30.631Z,92638.28
2022-08-22T13:21:02.755Z,92641.72
2022-08-22T13:23:42.036Z,92644.22
2022-08-22T13:26:32.867Z,92638.38
2022-08-22T13:29:26.940Z,92643.44
2022-08-22T13:32:01.528Z,92641.91
2022-08-22T13:34:49.021Z,92644.78
2022-08-22T13:37:24.750Z,92646.91
2022-08-22T13:39:58.820Z,92642.88
2022-08-22T13:42:30.152Z,92641.59
2022-08-22T13:45:02.522Z,92641.91
2022-08-22T13:47:32.499Z,92631.59
2022-08-22T13:50:11.238Z,92636.41
2022-08-22T13:52:49.299Z,92635.63
2022-08-22T13:55:27.621Z,92631.09
2022-08-22T13:58:11.366Z,92626.44
2022-08-22T14:01:25.220Z,92629.66
2022-08-22T14:04:28.738Z,92637.31
2022-08-22T14:07:29.955Z,92623.28
2022-08-22T14:10:05.117Z,92625.81
2022-08-22T14:12:50.921Z,92620.41
2022-08-22T14:15:34.005Z,92619.59
2022-08-22T14:18:31.608Z,92616.84
2022-08-22T14:21:27.322Z,92621.00
2022-08-22T14:23:59.398Z,92622.28
2022-08-22T14:26:35.739Z,92615.28
2022-08-22T14:29:07.778Z,92611.09
2022-08-22T14:31:35.386Z,92612.28
2022-08-22T14:34:10.556Z,92618.22
2022-08-22T14:36:58.730Z,92617.22
2022-08-22T14:39:42.889Z,92615.00
2022-08-22T14:42:26.568Z,92613.41
2022-08-22T14:44:53.131Z,92606.53
2022-08-22T14:47:55.492Z,92610.44
2022-08-22T14:50:43.733Z,92606.44
2022-08-22T14:53:25.211Z,92602.38
2022-08-22T14:56:04.418Z,92599.13
2022-08-22T14:58:36.469Z,92602.13
2022-08-22T15:01:16.749Z,92590.38
2022-08-22T15:03:50.622Z,92595.06
2022-08-22T15:06:35.855Z,92589.75
2022-08-22T15:09:23.029Z,92584.53
2022-08-22T15:11:49.663Z,92591.91
2022-08-22T15:14:42.627Z,92594.00
2022-08-22T15:17:10.846Z,92591.19
2022-08-22T15:19:44.398Z,92590.44
2022-08-22T15:22:19.507Z,92588.38
2022-08-22T15:25:02.603Z,92585.03
2022-08-22T15:27:32.507Z,92585.69
2022-08-22T15:30:02.581Z,92585.03
2022-08-22T15:32:32.491Z,92582.50
2022-08-22T15:35:13.781Z,92582.94
2022-08-22T15:38:28.170Z,92588.38
2022-08-22T15:40:56.650Z,92586.56
2022-08-22T15:43:28.885Z,92587.28
2022-08-22T15:46:53.697Z,92584.09
2022-08-22T15:49:20.166Z,92578.41
2022-08-22T15:52:11.165Z,92577.16
2022-08-22T15:54:46.881Z,92578.34
2022-08-22T15:57:19.016Z,92587.94
2022-08-22T15:59:53.670Z,92582.72
2022-08-22T16:02:27.950Z,92585.34
2022-08-22T16:05:10.370Z,92584.03
2022-08-22T16:07:48.671Z,92581.25
2022-08-22T16:10:24.358Z,92583.50
2022-08-22T16:13:15.774Z,92581.50
2022-08-22T16:15:52.646Z,92588.53
2022-08-22T16:18:34.426Z,92583.66
2022-08-22T16:21:03.825Z,92583.09
2022-08-22T16:23:50.812Z,92585.59
2022-08-22T16:26:24.306Z,92581.97
2022-08-22T16:29:10.294Z,92572.56
2022-08-22T16:31:48.530Z,92582.00
2022-08-22T16:34:18.157Z,92587.97
2022-08-22T16:36:44.857Z,92585.50
2022-08-22T16:39:20.402Z,92586.28
2022-08-22T16:41:48.417Z,92583.19
2022-08-22T16:44:30.163Z,92582.72
2022-08-22T16:47:19.295Z,92587.56
2022-08-22T16:49:51.537Z,92579.94
2022-08-22T16:52:26.826Z,92578.16
2022-08-22T16:55:00.101Z,92582.28
2022-08-22T16:57:29.422Z,92575.69
2022-08-22T17:00:08.901Z,92580.66
2022-08-22T17:03:00.152Z,92576.78
2022-08-22T17:05:42.230Z,92581.50
2022-08-22T17:08:32.240Z,92582.28
2022-08-22T17:11:10.625Z,92579.75
2022-08-22T17:14:07.920Z,92580.81
2022-08-22T17:16:41.717Z,92584.41
2022-08-22T17:19:20.917Z,92593.88
2022-08-22T17:21:57.178Z,92595.25
2022-08-22T17:24:46.114Z,92594.25
2022-08-22T17:27:28.808Z,92603.84
2022-08-22T17:30:11.717Z,92602.34
2022-08-22T17:33:09.047Z,92601.72
2022-08-22T17:35:44.306Z,92607.91
2022-08-22T17:38:44.050Z,92605.53
2022-08-22T17:41:22.084Z,92603.75
2022-08-22T17:44:13.199Z,92606.84
2022-08-22T17:46:55.214Z,92609.81
2022-08-22T17:49:46.598Z,92604.06
2022-08-22T17:52:22.212Z,92609.28
2022-08-22T17:54:52.500Z,92604.19
2022-08-22T17:57:47.066Z,92605.41
2022-08-22T18:00:24.245Z,92603.94
2022-08-22T18:02:57.974Z,92609.94
2022-08-22T18:05:31.468Z,92610.53
2022-08-22T18:08:37.389Z,92604.66
2022-08-22T18:11:07.790Z,92615.25
2022-08-22T18:14:04.974Z,92621.72
2022-08-22T18:16:43.764Z,92623.06
2022-08-22T18:19:10.216Z,92629.81
2022-08-22T18:21:51.590Z,92623.91
2022-08-22T18:24:33.225Z,92643.47
2022-08-22T18:27:34.050Z,92640.25
2022-08-22T18:30:13.908Z,92642.38
2022-08-22T18:32:51.325Z,92643.19
2022-08-22T18:35:53.872Z,92646.06
2022-08-22T18:38:30.120Z,92645.19
2022-08-22T18:41:26.035Z,92651.59
2022-08-22T18:43:53.326Z,92653.72
2022-08-22T18:46:38.038Z,92655.44
2022-08-22T18:49:15.515Z,92658.22
2022-08-22T18:51:43.039Z,92663.44
2022-08-22T18:54:12.466Z,92664.81
2022-08-22T18:57:06.973Z,92666.81
2022-08-22T18:59:46.594Z,92666.81
2022-08-22T19:03:00.955Z,92672.84
2022-08-22T19:05:49.566Z,92681.88
2022-08-22T19:08:49.310Z,92684.22
2022-08-22T19:11:45.589Z,92683.78
2022-08-22T19:14:30.657Z,92686.25
2022-08-22T19:17:27.257Z,92686.94
2022-08-22T19:20:20.218Z,92690.28
2022-08-22T19:22:51.125Z,92684.00
2022-08-22T19:25:27.460Z,92689.03
2022-08-22T19:27:56.936Z,92686.69
2022-08-22T19:30:45.002Z,92690.03
2022-08-22T19:33:19.589Z,92689.91
2022-08-22T19:35:54.107Z,92687.91
2022-08-22T19:38:53.756Z,92684.56
2022-08-22T19:41:39.449Z,92691.88
2022-08-22T19:44:32.673Z,92693.91
2022-08-22T19:47:08.614Z,92690.94
2022-08-22T19:49:39.333Z,92699.09
2022-08-22T19:52:24.028Z,92693.22
2022-08-22T19:55:21.397Z,92691.66
2022-08-22T19:58:33.193Z,92694.47
2022-08-22T20:01:28.566Z,92693.25
2022-08-22T20:04:36.814Z,92696.38
2022-08-22T20:07:14.778Z,92686.81
2022-08-22T20:10:08.387Z,92692.91
2022-08-22T20:12:54.177Z,92694.97
2022-08-22T20:15:23.901Z,92699.44
2022-08-22T20:20:58.357Z,92702.53
2022-08-22T20:23:30.031Z,92703.19
2022-08-22T20:25:57.974Z,92705.56
2022-08-22T20:28:34.433Z,92708.09
2022-08-22T20:31:06.016Z,92712.19
2022-08-22T20:33:36.876Z,92715.97
2022-08-22T20:36:16.728Z,92720.03
2022-08-22T20:39:01.672Z,92717.72
2022-08-22T20:41:40.432Z,92719.44
2022-08-22T20:44:24.154Z,92717.53
2022-08-22T20:46:55.922Z,92714.88
2022-08-22T20:49:30.208Z,92728.03
2022-08-22T20:51:59.498Z,92732.41
2022-08-22T20:54:29.798Z,92721.31
2022-08-22T20:56:58.380Z,92719.09
2022-08-22T20:59:38.271Z,92725.69
2022-08-22T21:02:18.000Z,92718.00
2022-08-22T21:04:50.860Z,92724.13
2022-08-22T21:07:27.057Z,92719.56
2022-08-22T21:10:16.739Z,92721.91
2022-08-22T21:13:19.666Z,92718.94
2022-08-22T21:15:56.901Z,92723.44
2022-08-22T21:18:48.262Z,92716.56
2022-08-22T21:21:27.301Z,92719.88
2022-08-22T21:24:01.284Z,92721.88
2022-08-22T21:26:39.190Z,92715.63
2022-08-22T21:29:14.464Z,92723.28
2022-08-22T21:32:04.264Z,92724.91
2022-08-22T21:34:40.784Z,92721.44
2022-08-22T21:37:08.887Z,92725.28
2022-08-22T21:39:41.333Z,92736.81
2022-08-22T21:42:21.796Z,92734.00
2022-08-22T21:44:57.695Z,92732.69
2022-08-22T21:47:30.599Z,92730.59
2022-08-22T21:50:18.589Z,92734.16
2022-08-22T21:53:12.092Z,92731.94
2022-08-22T21:55:47.994Z,92730.84
2022-08-22T21:58:35.705Z,92732.13
2022-08-22T22:01:30.489Z,92732.84
2022-08-22T22:03:59.336Z,92735.63
2022-08-22T22:06:26.447Z,92727.00
2022-08-22T22:08:52.963Z,92741.34
2022-08-22T22:11:19.673Z,92743.63
2022-08-22T22:13:46.478Z,92745.13
2022-08-22T22:16:13.410Z,92739.16
2022-08-22T22:18:40.851Z,92751.47
2022-08-22T22:21:08.471Z,92750.38
2022-08-22T22:23:38.202Z,92754.13
2022-08-22T22:26:05.799Z,92754.13
2022-08-22T22:28:39.310Z,92747.66
2022-08-22T22:31:06.914Z,92750.41
2022-08-22T22:33:37.148Z,92751.31
2022-08-22T22:36:10.584Z,92757.31
2022-08-22T22:38:38.979Z,92761.94
2022-08-22T22:41:05.664Z,92757.22
2022-08-22T22:43:32.405Z,92757.63
2022-08-22T22:45:59.236Z,92751.97
2022-08-22T22:48:25.797Z,92762.19
2022-08-22T22:50:53.411Z,92761.13
2022-08-22T22:53:21.521Z,92762.78
2022-08-22T22:56:00.690Z,92757.09
2022-08-22T22:58:28.576Z,92753.16
2022-08-22T23:00:56.058Z,92759.66
2022-08-22T23:03:23.050Z,92764.25
2022-08-22T23:05:49.608Z,92759.84
2022-08-22T23:08:16.158Z,92770.47
2022-08-22T23:10:42.721Z,92765.44
2022-08-22T23:13:09.381Z,92764.66
2022-08-22T23:15:36.931Z,92770.00
2022-08-22T23:18:03.521Z,92764.63
2022-08-22T23:20:30.099Z,92770.41
2022-08-22T23:22:56.775Z,92774.72
2022-08-22T23:25:23.274Z,92775.31
2022-08-22T23:27:52.368Z,92770.13
2022-08-22T23:30:19.646Z,92769.81
2022-08-22T23:32:46.194Z,92775.19
2022-08-22T23:35:12.718Z,92764.88
2022-08-22T23:37:39.358Z,92768.91
2022-08-22T23:40:09.606Z,92773.69
2022-08-22T23:42:36.329Z,92769.78
2022-08-22T23:45:03.624Z,92772.78
2022-08-22T23:47:30.159Z,92774.66
2022-08-22T23:49:56.685Z,92775.06
2022-08-22T23:52:23.194Z,92776.06
2022-08-22T23:54:54.334Z,92783.38
2022-08-22T23:57:27.401Z,92788.47
2022-08-22T23:59:57.594Z,92784.06
